M I D A S
Marine Information and Data Acquisition System
Tripno 1609 of the Zeeleeuw from 2008-11-12 08:00:00 to 2008-11-12 17:00:00
Back to CruiseResearch ActivitiesStationsMapUnderway DataData graphs

EquipmentUnitsComments
TimeDGPSUTC
LatitudeDGPSDM.mWGS84
LongitudeDGPSDM.mWGS84
SpeedMeteo Stationm/sRelative wind speed
DirectionMeteo StationdegRelative wind direction
TemperatureMeteo Stationdeg CelciusAir temperature
PressureMeteo StationPaAtmospheric pressure
HumidityMeteo Station%Relative humidity
Missing or incorrect values are displayed as -999
Metereological data collected by the RV Zeeleeuw from 2008-11-12 08:00:00 to 2008-11-12 17:00:00
Time Latitude Longitude Speed Direction Temperature Pressure Humidity
2008-11-12 08:02 51°13.623 2°56.048 -999 -999 -999 -999 -999
2008-11-12 08:04 51°13.624 2°56.048 -999 -999 -999 -999 -999
2008-11-12 08:05 51°13.624 2°56.047 -999 -999 -999 -999 -999
2008-11-12 08:06 51°13.623 2°56.048 -999 -999 -999 -999 -999
2008-11-12 08:07 51°13.624 2°56.048 -999 -999 -999 -999 -999
2008-11-12 08:08 51°13.624 2°56.047 -999 -999 -999 -999 -999
2008-11-12 08:10 51°13.624 2°56.048 -999 -999 -999 -999 -999
2008-11-12 08:12 51°13.625 2°56.047 -999 -999 -999 -999 -999
2008-11-12 08:13 51°13.624 2°56.048 -999 -999 -999 -999 -999
2008-11-12 08:15 51°13.624 2°56.048 -999 -999 -999 -999 -999
2008-11-12 08:16 51°13.624 2°56.048 -999 -999 -999 -999 -999
2008-11-12 08:18 51°13.623 2°56.048 -999 -999 -999 -999 -999
2008-11-12 08:20 51°13.622 2°56.047 -999 -999 -999 -999 -999
2008-11-12 08:22 51°13.624 2°56.047 -999 -999 -999 -999 -999
2008-11-12 08:24 51°13.624 2°56.048 -999 -999 -999 -999 -999
2008-11-12 08:26 51°13.627 2°56.048 -999 -999 -999 -999 -999
2008-11-12 08:28 51°13.625 2°56.047 -999 -999 -999 -999 -999
2008-11-12 08:30 51°13.623 2°56.047 -999 -999 -999 -999 -999
2008-11-12 08:32 51°13.624 2°56.048 -999 -999 -999 -999 -999
2008-11-12 08:34 51°13.625 2°56.048 -999 -999 -999 -999 -999
2008-11-12 08:36 51°13.625 2°56.048 -999 -999 -999 -999 -999
2008-11-12 08:38 51°13.624 2°56.047 -999 -999 -999 -999 -999
2008-11-12 08:40 51°13.625 2°56.047 -999 -999 -999 -999 -999
2008-11-12 08:42 51°13.626 2°56.047 -999 -999 -999 -999 -999
2008-11-12 08:44 51°13.625 2°56.048 -999 -999 -999 -999 -999
2008-11-12 08:46 51°13.62 2°56.049 -999 -999 -999 -999 -999
2008-11-12 08:48 51°13.622 2°56.049 -999 -999 -999 -999 -999
2008-11-12 08:50 51°13.623 2°56.048 -999 -999 -999 -999 -999
2008-11-12 08:52 51°13.623 2°56.048 -999 -999 -999 -999 -999
2008-11-12 08:54 51°13.623 2°56.047 -999 -999 -999 -999 -999
2008-11-12 08:56 51°13.623 2°56.048 -999 -999 -999 -999 -999
2008-11-12 08:57 51°13.622 2°56.048 -999 -999 -999 -999 -999
2008-11-12 08:59 51°13.623 2°56.049 -999 -999 -999 -999 -999
2008-11-12 09:00 51°13.623 2°56.047 -999 -999 -999 -999 -999
2008-11-12 09:01 51°13.63 2°56.025 -999 -999 -999 -999 -999
2008-11-12 09:02 51°13.647 2°55.977 -999 -999 -999 -999 -999
2008-11-12 09:02 51°13.662 2°55.912 -999 -999 -999 -999 -999
2008-11-12 09:03 51°13.673 2°55.848 -999 -999 -999 -999 -999
2008-11-12 09:04 51°13.681 2°55.795 -999 -999 -999 -999 -999
2008-11-12 09:04 51°13.686 2°55.759 -999 -999 -999 -999 -999
2008-11-12 09:05 51°13.69 2°55.749 -999 -999 -999 -999 -999
2008-11-12 09:06 51°13.703 2°55.77 -999 -999 -999 -999 -999
2008-11-12 09:06 51°13.72 2°55.775 -999 -999 -999 -999 -999
2008-11-12 09:07 51°13.714 2°55.769 -999 -999 -999 -999 -999
2008-11-12 09:08 51°13.719 2°55.759 -999 -999 -999 -999 -999
2008-11-12 09:08 51°13.744 2°55.726 -999 -999 -999 -999 -999
2008-11-12 09:09 51°13.783 2°55.678 -999 -999 -999 -999 -999
2008-11-12 09:10 51°13.834 2°55.633 -999 -999 -999 -999 -999
2008-11-12 09:10 51°13.894 2°55.586 -999 -999 -999 -999 -999
2008-11-12 09:11 51°13.953 2°55.543 -999 -999 -999 -999 -999
2008-11-12 09:12 51°14.008 2°55.509 -999 -999 -999 -999 -999
2008-11-12 09:12 51°14.06 2°55.474 -999 -999 -999 -999 -999
2008-11-12 09:13 51°14.118 2°55.428 -999 -999 -999 -999 -999
2008-11-12 09:14 51°14.187 2°55.362 -999 -999 -999 -999 -999
2008-11-12 09:14 51°14.253 2°55.274 -999 -999 -999 -999 -999
2008-11-12 09:15 51°14.313 2°55.173 -999 -999 -999 -999 -999
2008-11-12 09:16 51°14.368 2°55.066 -999 -999 -999 -999 -999
2008-11-12 09:16 51°14.436 2°54.972 -999 -999 -999 -999 -999
2008-11-12 09:17 51°14.515 2°54.883 -999 -999 -999 -999 -999
2008-11-12 09:18 51°14.61 2°54.827 -999 -999 -999 -999 -999
2008-11-12 09:18 51°14.713 2°54.798 -999 -999 -999 -999 -999
2008-11-12 09:19 51°14.815 2°54.78 -999 -999 -999 -999 -999
2008-11-12 09:20 51°14.918 2°54.757 -999 -999 -999 -999 -999
2008-11-12 09:20 51°15.022 2°54.73 -999 -999 -999 -999 -999
2008-11-12 09:21 51°15.125 2°54.703 -999 -999 -999 -999 -999
2008-11-12 09:22 51°15.228 2°54.671 -999 -999 -999 -999 -999
2008-11-12 09:22 51°15.331 2°54.634 -999 -999 -999 -999 -999
2008-11-12 09:23 51°15.432 2°54.594 -999 -999 -999 -999 -999
2008-11-12 09:24 51°15.531 2°54.554 -999 -999 -999 -999 -999
2008-11-12 09:24 51°15.63 2°54.513 -999 -999 -999 -999 -999
2008-11-12 09:25 51°15.729 2°54.473 -999 -999 -999 -999 -999
2008-11-12 09:26 51°15.831 2°54.433 -999 -999 -999 -999 -999
2008-11-12 09:26 51°15.931 2°54.397 -999 -999 -999 -999 -999
2008-11-12 09:27 51°16.006 2°54.372 -999 -999 -999 -999 -999
2008-11-12 09:28 51°16.065 2°54.358 -999 -999 -999 -999 -999
2008-11-12 09:28 51°16.115 2°54.345 -999 -999 -999 -999 -999
2008-11-12 09:29 51°16.158 2°54.328 -999 -999 -999 -999 -999
2008-11-12 09:30 51°16.191 2°54.303 -999 -999 -999 -999 -999
2008-11-12 09:30 51°16.216 2°54.279 -999 -999 -999 -999 -999
2008-11-12 09:31 51°16.233 2°54.273 -999 -999 -999 -999 -999
2008-11-12 09:32 51°16.245 2°54.282 -999 -999 -999 -999 -999
2008-11-12 09:32 51°16.254 2°54.3 -999 -999 -999 -999 -999
2008-11-12 09:33 51°16.262 2°54.325 -999 -999 -999 -999 -999
2008-11-12 09:34 51°16.268 2°54.353 -999 -999 -999 -999 -999
2008-11-12 09:34 51°16.273 2°54.384 -999 -999 -999 -999 -999
2008-11-12 09:35 51°16.277 2°54.414 -999 -999 -999 -999 -999
2008-11-12 09:36 51°16.28 2°54.445 -999 -999 -999 -999 -999
2008-11-12 09:36 51°16.282 2°54.475 -999 -999 -999 -999 -999
2008-11-12 09:37 51°16.285 2°54.506 -999 -999 -999 -999 -999
2008-11-12 09:38 51°16.288 2°54.537 -999 -999 -999 -999 -999
2008-11-12 09:38 51°16.292 2°54.568 -999 -999 -999 -999 -999
2008-11-12 09:39 51°16.296 2°54.601 -999 -999 -999 -999 -999
2008-11-12 09:40 51°16.31 2°54.633 -999 -999 -999 -999 -999
2008-11-12 09:40 51°16.336 2°54.651 -999 -999 -999 -999 -999
2008-11-12 09:41 51°16.358 2°54.634 -999 -999 -999 -999 -999
2008-11-12 09:42 51°16.351 2°54.604 -999 -999 -999 -999 -999
2008-11-12 09:42 51°16.323 2°54.571 -999 -999 -999 -999 -999
2008-11-12 09:43 51°16.293 2°54.527 -999 -999 -999 -999 -999
2008-11-12 09:44 51°16.27 2°54.472 -999 -999 -999 -999 -999
2008-11-12 09:44 51°16.266 2°54.402 -999 -999 -999 -999 -999
2008-11-12 09:45 51°16.257 2°54.34 -999 -999 -999 -999 -999
2008-11-12 09:46 51°16.243 2°54.309 -999 -999 -999 -999 -999
2008-11-12 09:46 51°16.232 2°54.308 -999 -999 -999 -999 -999
2008-11-12 09:47 51°16.227 2°54.323 -999 -999 -999 -999 -999
2008-11-12 09:48 51°16.225 2°54.346 -999 -999 -999 -999 -999
2008-11-12 09:48 51°16.225 2°54.375 -999 -999 -999 -999 -999
2008-11-12 09:49 51°16.228 2°54.408 -999 -999 -999 -999 -999
2008-11-12 09:50 51°16.23 2°54.444 -999 -999 -999 -999 -999
2008-11-12 09:50 51°16.235 2°54.48 -999 -999 -999 -999 -999
2008-11-12 09:51 51°16.24 2°54.517 -999 -999 -999 -999 -999
2008-11-12 09:52 51°16.237 2°54.551 -999 -999 -999 -999 -999
2008-11-12 09:52 51°16.223 2°54.568 -999 -999 -999 -999 -999
2008-11-12 09:53 51°16.214 2°54.553 -999 -999 -999 -999 -999
2008-11-12 09:54 51°16.226 2°54.536 -999 -999 -999 -999 -999
2008-11-12 09:54 51°16.249 2°54.511 -999 -999 -999 -999 -999
2008-11-12 09:55 51°16.256 2°54.473 -999 -999 -999 -999 -999
2008-11-12 09:56 51°16.25 2°54.432 -999 -999 -999 -999 -999
2008-11-12 09:56 51°16.249 2°54.393 -999 -999 -999 -999 -999
2008-11-12 09:57 51°16.26 2°54.365 -999 -999 -999 -999 -999
2008-11-12 09:58 51°16.273 2°54.36 -999 -999 -999 -999 -999
2008-11-12 09:58 51°16.281 2°54.376 -999 -999 -999 -999 -999
2008-11-12 09:59 51°16.289 2°54.403 -999 -999 -999 -999 -999
2008-11-12 10:00 51°16.296 2°54.437 -999 -999 -999 -999 -999
2008-11-12 10:00 51°16.303 2°54.476 -999 -999 -999 -999 -999
2008-11-12 10:01 51°16.311 2°54.519 -999 -999 -999 -999 -999
2008-11-12 10:02 51°16.32 2°54.564 -999 -999 -999 -999 -999
2008-11-12 10:02 51°16.326 2°54.603 -999 -999 -999 -999 -999
2008-11-12 10:03 51°16.31 2°54.592 -999 -999 -999 -999 -999
2008-11-12 10:04 51°16.304 2°54.527 -999 -999 -999 -999 -999
2008-11-12 10:04 51°16.282 2°54.462 -999 -999 -999 -999 -999
2008-11-12 10:05 51°16.272 2°54.41 -999 -999 -999 -999 -999
2008-11-12 10:06 51°16.267 2°54.37 -999 -999 -999 -999 -999
2008-11-12 10:06 51°16.254 2°54.333 -999 -999 -999 -999 -999
2008-11-12 10:07 51°16.247 2°54.317 -999 -999 -999 -999 -999
2008-11-12 10:08 51°16.249 2°54.338 -999 -999 -999 -999 -999
2008-11-12 10:08 51°16.253 2°54.369 -999 -999 -999 -999 -999
2008-11-12 10:09 51°16.257 2°54.405 -999 -999 -999 -999 -999
2008-11-12 10:10 51°16.262 2°54.444 -999 -999 -999 -999 -999
2008-11-12 10:10 51°16.268 2°54.484 -999 -999 -999 -999 -999
2008-11-12 10:11 51°16.267 2°54.52 -999 -999 -999 -999 -999
2008-11-12 10:12 51°16.251 2°54.516 -999 -999 -999 -999 -999
2008-11-12 10:12 51°16.253 2°54.472 -999 -999 -999 -999 -999
2008-11-12 10:13 51°16.255 2°54.405 -999 -999 -999 -999 -999
2008-11-12 10:14 51°16.255 2°54.344 -999 -999 -999 -999 -999
2008-11-12 10:14 51°16.257 2°54.303 -999 -999 -999 -999 -999
2008-11-12 10:15 51°16.26 2°54.302 -999 -999 -999 -999 -999
2008-11-12 10:16 51°16.267 2°54.325 -999 -999 -999 -999 -999
2008-11-12 10:16 51°16.273 2°54.356 -999 -999 -999 -999 -999
2008-11-12 10:17 51°16.28 2°54.394 -999 -999 -999 -999 -999
2008-11-12 10:18 51°16.288 2°54.436 -999 -999 -999 -999 -999
2008-11-12 10:18 51°16.298 2°54.481 -999 -999 -999 -999 -999
2008-11-12 10:19 51°16.302 2°54.516 -999 -999 -999 -999 -999
2008-11-12 10:20 51°16.294 2°54.491 -999 -999 -999 -999 -999
2008-11-12 10:20 51°16.281 2°54.429 -999 -999 -999 -999 -999
2008-11-12 10:21 51°16.261 2°54.357 -999 -999 -999 -999 -999
2008-11-12 10:22 51°16.26 2°54.31 -999 -999 -999 -999 -999
2008-11-12 10:22 51°16.264 2°54.302 -999 -999 -999 -999 -999
2008-11-12 10:23 51°16.27 2°54.323 -999 -999 -999 -999 -999
2008-11-12 10:24 51°16.276 2°54.351 -999 -999 -999 -999 -999
2008-11-12 10:24 51°16.282 2°54.384 -999 -999 -999 -999 -999
2008-11-12 10:25 51°16.289 2°54.422 -999 -999 -999 -999 -999
2008-11-12 10:26 51°16.296 2°54.46 -999 -999 -999 -999 -999
2008-11-12 10:26 51°16.287 2°54.479 -999 -999 -999 -999 -999
2008-11-12 10:27 51°16.279 2°54.433 -999 -999 -999 -999 -999
2008-11-12 10:28 51°16.263 2°54.361 -999 -999 -999 -999 -999
2008-11-12 10:28 51°16.24 2°54.309 -999 -999 -999 -999 -999
2008-11-12 10:29 51°16.239 2°54.294 -999 -999 -999 -999 -999
2008-11-12 10:30 51°16.246 2°54.32 -999 -999 -999 -999 -999
2008-11-12 10:30 51°16.253 2°54.354 -999 -999 -999 -999 -999
2008-11-12 10:31 51°16.261 2°54.393 -999 -999 -999 -999 -999
2008-11-12 10:32 51°16.27 2°54.436 -999 -999 -999 -999 -999
2008-11-12 10:32 51°16.281 2°54.479 -999 -999 -999 -999 -999
2008-11-12 10:33 51°16.293 2°54.524 -999 -999 -999 -999 -999
2008-11-12 10:34 51°16.304 2°54.563 -999 -999 -999 -999 -999
2008-11-12 10:34 51°16.299 2°54.573 -999 -999 -999 -999 -999
2008-11-12 10:35 51°16.297 2°54.549 -999 -999 -999 -999 -999
2008-11-12 10:36 51°16.29 2°54.512 -999 -999 -999 -999 -999
2008-11-12 10:36 51°16.268 2°54.475 -999 -999 -999 -999 -999
2008-11-12 10:37 51°16.26 2°54.43 -999 -999 -999 -999 -999
2008-11-12 10:38 51°16.263 2°54.384 -999 -999 -999 -999 -999
2008-11-12 10:38 51°16.252 2°54.36 -999 -999 -999 -999 -999
2008-11-12 10:39 51°16.249 2°54.333 -999 -999 -999 -999 -999
2008-11-12 10:40 51°16.255 2°54.322 -999 -999 -999 -999 -999
2008-11-12 10:40 51°16.264 2°54.336 -999 -999 -999 -999 -999
2008-11-12 10:41 51°16.273 2°54.359 -999 -999 -999 -999 -999
2008-11-12 10:42 51°16.282 2°54.387 -999 -999 -999 -999 -999
2008-11-12 10:42 51°16.291 2°54.421 -999 -999 -999 -999 -999
2008-11-12 10:43 51°16.301 2°54.458 -999 -999 -999 -999 -999
2008-11-12 10:44 51°16.311 2°54.499 -999 -999 -999 -999 -999
2008-11-12 10:44 51°16.322 2°54.524 -999 -999 -999 -999 -999
2008-11-12 10:45 51°16.321 2°54.519 -999 -999 -999 -999 -999
2008-11-12 10:46 51°16.298 2°54.496 -999 -999 -999 -999 -999
2008-11-12 10:46 51°16.273 2°54.456 -999 -999 -999 -999 -999
2008-11-12 10:47 51°16.263 2°54.396 -999 -999 -999 -999 -999
2008-11-12 10:48 51°16.255 2°54.34 -999 -999 -999 -999 -999
2008-11-12 10:48 51°16.249 2°54.303 -999 -999 -999 -999 -999
2008-11-12 10:49 51°16.254 2°54.306 -999 -999 -999 -999 -999
2008-11-12 10:50 51°16.263 2°54.332 -999 -999 -999 -999 -999
2008-11-12 10:50 51°16.273 2°54.365 -999 -999 -999 -999 -999
2008-11-12 10:51 51°16.284 2°54.402 -999 -999 -999 -999 -999
2008-11-12 10:52 51°16.293 2°54.443 -999 -999 -999 -999 -999
2008-11-12 10:52 51°16.303 2°54.485 -999 -999 -999 -999 -999
2008-11-12 10:53 51°16.32 2°54.51 -999 -999 -999 -999 -999
2008-11-12 10:54 51°16.337 2°54.499 -999 -999 -999 -999 -999
2008-11-12 10:54 51°16.326 2°54.488 -999 -999 -999 -999 -999
2008-11-12 10:55 51°16.295 2°54.474 -999 -999 -999 -999 -999
2008-11-12 10:56 51°16.272 2°54.438 -999 -999 -999 -999 -999
2008-11-12 10:56 51°16.267 2°54.384 -999 -999 -999 -999 -999
2008-11-12 10:57 51°16.258 2°54.331 -999 -999 -999 -999 -999
2008-11-12 10:58 51°16.246 2°54.304 -999 -999 -999 -999 -999
2008-11-12 10:58 51°16.242 2°54.316 -999 -999 -999 -999 -999
2008-11-12 10:59 51°16.248 2°54.348 -999 -999 -999 -999 -999
2008-11-12 11:00 51°16.254 2°54.382 -999 -999 -999 -999 -999
2008-11-12 11:00 51°16.261 2°54.418 -999 -999 -999 -999 -999
2008-11-12 11:01 51°16.268 2°54.454 -999 -999 -999 -999 -999
2008-11-12 11:02 51°16.275 2°54.49 -999 -999 -999 -999 -999
2008-11-12 11:02 51°16.282 2°54.526 -999 -999 -999 -999 -999
2008-11-12 11:03 51°16.283 2°54.56 -999 -999 -999 -999 -999
2008-11-12 11:04 51°16.269 2°54.567 -999 -999 -999 -999 -999
2008-11-12 11:04 51°16.266 2°54.54 -999 -999 -999 -999 -999
2008-11-12 11:05 51°16.268 2°54.497 -999 -999 -999 -999 -999
2008-11-12 11:06 51°16.257 2°54.449 -999 -999 -999 -999 -999
2008-11-12 11:06 51°16.251 2°54.391 -999 -999 -999 -999 -999
2008-11-12 11:07 51°16.251 2°54.328 -999 -999 -999 -999 -999
2008-11-12 11:08 51°16.259 2°54.294 -999 -999 -999 -999 -999
2008-11-12 11:08 51°16.27 2°54.309 -999 -999 -999 -999 -999
2008-11-12 11:09 51°16.281 2°54.34 -999 -999 -999 -999 -999
2008-11-12 11:10 51°16.29 2°54.375 -999 -999 -999 -999 -999
2008-11-12 11:10 51°16.298 2°54.41 -999 -999 -999 -999 -999
2008-11-12 11:11 51°16.306 2°54.445 -999 -999 -999 -999 -999
2008-11-12 11:12 51°16.313 2°54.48 -999 -999 -999 -999 -999
2008-11-12 11:12 51°16.32 2°54.515 -999 -999 -999 -999 -999
2008-11-12 11:13 51°16.337 2°54.551 -999 -999 -999 -999 -999
2008-11-12 11:14 51°16.371 2°54.572 -999 -999 -999 -999 -999
2008-11-12 11:14 51°16.401 2°54.56 -999 -999 -999 -999 -999
2008-11-12 11:15 51°16.393 2°54.528 -999 -999 -999 -999 -999
2008-11-12 11:16 51°16.348 2°54.512 -999 -999 -999 -999 -999
2008-11-12 11:16 51°16.3 2°54.465 -999 -999 -999 -999 -999
2008-11-12 11:17 51°16.267 2°54.393 -999 -999 -999 -999 -999
2008-11-12 11:18 51°16.245 2°54.314 -999 -999 -999 -999 -999
2008-11-12 11:18 51°16.243 2°54.267 -999 -999 -999 -999 -999
2008-11-12 11:19 51°16.248 2°54.252 -999 -999 -999 -999 -999
2008-11-12 11:20 51°16.256 2°54.255 -999 -999 -999 -999 -999
2008-11-12 11:20 51°16.265 2°54.269 -999 -999 -999 -999 -999
2008-11-12 11:21 51°16.273 2°54.291 -999 -999 -999 -999 -999
2008-11-12 11:22 51°16.281 2°54.321 -999 -999 -999 -999 -999
2008-11-12 11:22 51°16.29 2°54.356 -999 -999 -999 -999 -999
2008-11-12 11:23 51°16.298 2°54.395 -999 -999 -999 -999 -999
2008-11-12 11:24 51°16.304 2°54.437 -999 -999 -999 -999 -999
2008-11-12 11:24 51°16.309 2°54.478 -999 -999 -999 -999 -999
2008-11-12 11:25 51°16.313 2°54.516 -999 -999 -999 -999 -999
2008-11-12 11:26 51°16.317 2°54.552 -999 -999 -999 -999 -999
2008-11-12 11:26 51°16.32 2°54.584 -999 -999 -999 -999 -999
2008-11-12 11:27 51°16.326 2°54.615 -999 -999 -999 -999 -999
2008-11-12 11:28 51°16.338 2°54.654 -999 -999 -999 -999 -999
2008-11-12 11:28 51°16.359 2°54.719 -999 -999 -999 -999 -999
2008-11-12 11:29 51°16.389 2°54.821 -999 -999 -999 -999 -999
2008-11-12 11:30 51°16.435 2°54.955 -999 -999 -999 -999 -999
2008-11-12 11:30 51°16.485 2°55.103 -999 -999 -999 -999 -999
2008-11-12 11:31 51°16.534 2°55.256 -999 -999 -999 -999 -999
2008-11-12 11:32 51°16.576 2°55.426 -999 -999 -999 -999 -999
2008-11-12 11:32 51°16.613 2°55.62 -999 -999 -999 -999 -999
2008-11-12 11:33 51°16.641 2°55.828 -999 -999 -999 -999 -999
2008-11-12 11:34 51°16.663 2°56.036 -999 -999 -999 -999 -999
2008-11-12 11:34 51°16.684 2°56.257 -999 -999 -999 -999 -999
2008-11-12 11:35 51°16.702 2°56.467 -999 -999 -999 -999 -999
2008-11-12 11:36 51°16.728 2°56.704 -999 -999 -999 -999 -999
2008-11-12 11:36 51°16.753 2°56.941 -999 -999 -999 -999 -999
2008-11-12 11:37 51°16.766 2°57.171 -999 -999 -999 -999 -999
2008-11-12 11:38 51°16.775 2°57.408 -999 -999 -999 -999 -999
2008-11-12 11:38 51°16.783 2°57.645 -999 -999 -999 -999 -999
2008-11-12 11:39 51°16.789 2°57.881 -999 -999 -999 -999 -999
2008-11-12 11:40 51°16.797 2°58.117 -999 -999 -999 -999 -999
2008-11-12 11:40 51°16.806 2°58.34 -999 -999 -999 -999 -999
2008-11-12 11:41 51°16.793 2°58.482 -999 -999 -999 -999 -999
2008-11-12 11:42 51°16.776 2°58.582 -999 -999 -999 -999 -999
2008-11-12 11:42 51°16.763 2°58.667 -999 -999 -999 -999 -999
2008-11-12 11:43 51°16.749 2°58.743 -999 -999 -999 -999 -999
2008-11-12 11:44 51°16.738 2°58.816 -999 -999 -999 -999 -999
2008-11-12 11:44 51°16.73 2°58.888 -999 -999 -999 -999 -999
2008-11-12 11:45 51°16.722 2°58.952 -999 -999 -999 -999 -999
2008-11-12 11:46 51°16.715 2°59.004 -999 -999 -999 -999 -999
2008-11-12 11:46 51°16.71 2°59.047 -999 -999 -999 -999 -999
2008-11-12 11:47 51°16.707 2°59.085 -999 -999 -999 -999 -999
2008-11-12 11:48 51°16.703 2°59.12 -999 -999 -999 -999 -999
2008-11-12 11:48 51°16.695 2°59.154 -999 -999 -999 -999 -999
2008-11-12 11:49 51°16.69 2°59.186 -999 -999 -999 -999 -999
2008-11-12 11:50 51°16.688 2°59.217 -999 -999 -999 -999 -999
2008-11-12 11:50 51°16.687 2°59.244 -999 -999 -999 -999 -999
2008-11-12 11:51 51°16.689 2°59.27 -999 -999 -999 -999 -999
2008-11-12 11:52 51°16.692 2°59.294 -999 -999 -999 -999 -999
2008-11-12 11:52 51°16.693 2°59.318 -999 -999 -999 -999 -999
2008-11-12 11:53 51°16.679 2°59.318 -999 -999 -999 -999 -999
2008-11-12 11:54 51°16.661 2°59.246 -999 -999 -999 -999 -999
2008-11-12 11:54 51°16.641 2°59.124 -999 -999 -999 -999 -999
2008-11-12 11:55 51°16.609 2°58.969 -999 -999 -999 -999 -999
2008-11-12 11:56 51°16.57 2°58.794 -999 -999 -999 -999 -999
2008-11-12 11:56 51°16.534 2°58.622 -999 -999 -999 -999 -999
2008-11-12 11:57 51°16.496 2°58.445 -999 -999 -999 -999 -999
2008-11-12 11:58 51°16.46 2°58.268 -999 -999 -999 -999 -999
2008-11-12 11:58 51°16.422 2°58.091 -999 -999 -999 -999 -999
2008-11-12 11:59 51°16.384 2°57.915 -999 -999 -999 -999 -999
2008-11-12 12:00 51°16.338 2°57.692 -999 -999 -999 -999 -999
2008-11-12 12:01 51°16.277 2°57.43 -999 -999 -999 -999 -999
2008-11-12 12:02 51°16.205 2°57.171 -999 -999 -999 -999 -999
2008-11-12 12:03 51°16.136 2°56.92 -999 -999 -999 -999 -999
2008-11-12 12:04 51°16.06 2°56.666 -999 -999 -999 -999 -999
2008-11-12 12:05 51°15.984 2°56.42 -999 -999 -999 -999 -999
2008-11-12 12:06 51°15.91 2°56.168 -999 -999 -999 -999 -999
2008-11-12 12:07 51°15.837 2°55.917 -999 -999 -999 -999 -999
2008-11-12 12:08 51°15.767 2°55.665 -999 -999 -999 -999 -999
2008-11-12 12:09 51°15.698 2°55.413 -999 -999 -999 -999 -999
2008-11-12 12:10 51°15.626 2°55.164 -999 -999 -999 -999 -999
2008-11-12 12:11 51°15.559 2°54.91 -999 -999 -999 -999 -999
2008-11-12 12:12 51°15.493 2°54.654 -999 -999 -999 -999 -999
2008-11-12 12:13 51°15.415 2°54.41 -999 -999 -999 -999 -999
2008-11-12 12:14 51°15.306 2°54.211 -999 -999 -999 -999 -999
2008-11-12 12:15 51°15.134 2°54.191 -999 -999 -999 -999 -999
2008-11-12 12:16 51°14.955 2°54.288 -999 -999 -999 -999 -999
2008-11-12 12:17 51°14.798 2°54.471 -999 -999 -999 -999 -999
2008-11-12 12:18 51°14.644 2°54.663 -999 -999 -999 -999 -999
2008-11-12 12:19 51°14.481 2°54.841 -999 -999 -999 -999 -999
2008-11-12 12:20 51°14.341 2°55.081 -999 -999 -999 -999 -999
2008-11-12 12:21 51°14.257 2°55.258 -999 -999 -999 -999 -999
2008-11-12 12:22 51°14.194 2°55.358 -999 -999 -999 -999 -999
2008-11-12 12:23 51°14.131 2°55.429 -999 -999 -999 -999 -999
2008-11-12 12:24 51°14.059 2°55.493 -999 -999 -999 -999 -999
2008-11-12 12:25 51°13.981 2°55.545 -999 -999 -999 -999 -999
2008-11-12 12:26 51°13.899 2°55.592 -999 -999 -999 -999 -999
2008-11-12 12:27 51°13.819 2°55.644 -999 -999 -999 -999 -999
2008-11-12 12:28 51°13.752 2°55.727 -999 -999 -999 -999 -999
2008-11-12 12:29 51°13.697 2°55.834 -999 -999 -999 -999 -999
2008-11-12 12:30 51°13.649 2°55.941 -999 -999 -999 -999 -999
2008-11-12 12:31 51°13.631 2°56.023 -999 -999 -999 -999 -999
2008-11-12 12:32 51°13.626 2°56.041 -999 -999 -999 -999 -999
2008-11-12 12:33 51°13.623 2°56.047 -999 -999 -999 -999 -999
2008-11-12 12:35 51°13.623 2°56.048 -999 -999 -999 -999 -999